createdAt,value
2022-11-27T00:02:09.364Z,15.67
2022-11-27T00:04:36.259Z,13.17
2022-11-27T00:07:03.144Z,12.77
2022-11-27T00:09:30.201Z,9.90
2022-11-27T00:11:57.138Z,11.93
2022-11-27T00:14:24.074Z,17.60
2022-11-27T00:16:50.981Z,14.33
2022-11-27T00:19:17.863Z,11.07
2022-11-27T00:21:44.782Z,14.07
2022-11-27T00:24:12.301Z,13.70
2022-11-27T00:26:39.230Z,9.87
2022-11-27T00:29:07.254Z,11.93
2022-11-27T00:31:35.178Z,17.17
2022-11-27T00:34:04.187Z,15.80
2022-11-27T00:36:32.685Z,11.17
2022-11-27T00:38:59.996Z,13.43
2022-11-27T00:41:29.181Z,13.10
2022-11-27T00:43:56.728Z,17.33
2022-11-27T00:46:28.993Z,10.47
2022-11-27T00:48:58.013Z,13.33
2022-11-27T00:51:25.868Z,16.50
2022-11-27T00:53:53.584Z,12.53
2022-11-27T00:56:26.795Z,11.33
2022-11-27T00:58:54.307Z,10.50
2022-11-27T01:01:24.184Z,6.90
2022-11-27T01:03:51.323Z,12.03
2022-11-27T01:06:19.599Z,13.43
2022-11-27T01:08:46.918Z,9.00
2022-11-27T01:11:16.894Z,7.57
2022-11-27T01:13:44.053Z,11.30
2022-11-27T01:16:17.347Z,11.77
2022-11-27T01:18:46.029Z,12.60
2022-11-27T01:21:14.336Z,9.03
2022-11-27T01:23:41.399Z,11.00
2022-11-27T01:26:10.447Z,12.50
2022-11-27T01:28:39.717Z,11.23
2022-11-27T01:31:12.986Z,12.23
2022-11-27T01:33:40.103Z,10.03
2022-11-27T01:36:08.565Z,11.43
2022-11-27T01:38:35.811Z,9.23
2022-11-27T01:41:06.190Z,5.77
2022-11-27T01:43:53.715Z,11.43
2022-11-27T01:46:40.597Z,7.63
2022-11-27T01:49:10.435Z,7.90
2022-11-27T01:51:38.963Z,7.37
2022-11-27T01:54:05.988Z,9.87
2022-11-27T01:56:32.935Z,9.90
2022-11-27T01:59:00.511Z,16.47
2022-11-27T02:01:27.409Z,9.10
2022-11-27T02:03:59.008Z,10.73
2022-11-27T02:06:25.979Z,10.80
2022-11-27T02:08:53.301Z,11.00
2022-11-27T02:11:33.649Z,9.50
2022-11-27T02:14:38.923Z,10.10
2022-11-27T02:17:08.939Z,6.40
2022-11-27T02:19:46.809Z,16.90
2022-11-27T02:22:36.177Z,12.03
2022-11-27T02:25:08.304Z,11.10
2022-11-27T02:28:10.577Z,10.90
2022-11-27T02:30:46.690Z,18.03
2022-11-27T02:33:18.657Z,24.93
2022-11-27T02:35:55.376Z,15.90
2022-11-27T02:38:30.214Z,14.07
2022-11-27T02:41:26.373Z,10.47
2022-11-27T02:43:54.634Z,12.27
2022-11-27T02:46:22.215Z,14.03
2022-11-27T02:49:02.277Z,15.30
2022-11-27T02:51:39.036Z,8.80
2022-11-27T02:54:11.021Z,14.90
2022-11-27T02:56:40.827Z,12.43
2022-11-27T02:59:11.761Z,8.20
2022-11-27T03:01:46.156Z,9.77
2022-11-27T03:04:18.907Z,9.07
2022-11-27T03:06:53.998Z,10.37
2022-11-27T03:09:37.380Z,10.30
2022-11-27T03:12:07.262Z,9.80
2022-11-27T03:14:36.517Z,11.17
2022-11-27T03:17:16.599Z,12.10
2022-11-27T03:19:50.635Z,13.63
2022-11-27T03:22:18.074Z,15.30
2022-11-27T03:24:45.017Z,16.73
2022-11-27T03:27:19.508Z,14.53
2022-11-27T03:29:51.395Z,13.83
2022-11-27T03:32:18.606Z,13.57
2022-11-27T03:34:47.291Z,11.90
2022-11-27T03:37:14.828Z,11.07
2022-11-27T03:39:42.399Z,12.57
2022-11-27T03:42:37.040Z,11.27
2022-11-27T03:45:03.846Z,9.93
2022-11-27T03:47:47.442Z,10.80
2022-11-27T03:50:20.583Z,8.00
2022-11-27T03:53:22.825Z,12.10
2022-11-27T03:55:55.960Z,10.23
2022-11-27T03:58:43.803Z,12.03
2022-11-27T04:01:14.460Z,9.80
2022-11-27T04:03:41.512Z,10.23
2022-11-27T04:06:08.633Z,7.40
2022-11-27T04:08:35.448Z,10.70
2022-11-27T04:11:02.439Z,11.40
2022-11-27T04:13:29.341Z,13.33
2022-11-27T04:15:56.392Z,11.70
2022-11-27T04:18:23.339Z,10.10
2022-11-27T04:20:50.204Z,15.00
2022-11-27T04:23:17.085Z,12.47
2022-11-27T04:25:44.125Z,10.60
2022-11-27T04:28:11.159Z,10.00
2022-11-27T04:30:38.106Z,15.57
2022-11-27T04:33:05.039Z,10.33
2022-11-27T04:35:32.003Z,14.23
2022-11-27T04:37:59.140Z,12.33
2022-11-27T04:40:26.113Z,14.17
2022-11-27T04:42:53.597Z,14.63
2022-11-27T04:45:20.654Z,15.47
2022-11-27T04:47:47.754Z,19.03
2022-11-27T04:50:14.643Z,15.20
2022-11-27T04:52:41.503Z,17.60
2022-11-27T04:55:08.849Z,21.33
2022-11-27T04:57:35.774Z,12.47
2022-11-27T05:00:04.575Z,16.47
2022-11-27T05:02:31.597Z,13.13
2022-11-27T05:04:58.539Z,13.50
2022-11-27T05:07:25.620Z,14.80
2022-11-27T05:09:52.688Z,17.20
2022-11-27T05:12:19.568Z,12.63
2022-11-27T05:14:46.533Z,14.73
2022-11-27T05:17:13.430Z,14.17
2022-11-27T05:19:40.346Z,13.13
2022-11-27T05:22:07.267Z,10.27
2022-11-27T05:24:34.202Z,17.13
2022-11-27T05:27:01.080Z,14.23
2022-11-27T05:29:28.153Z,11.87
2022-11-27T05:31:55.083Z,10.97
2022-11-27T05:34:22.327Z,14.53
2022-11-27T05:36:49.246Z,9.67
2022-11-27T05:39:16.468Z,9.17
2022-11-27T05:41:43.794Z,11.83
2022-11-27T05:44:13.478Z,10.13
2022-11-27T05:46:41.026Z,10.87
2022-11-27T05:49:08.040Z,11.07
2022-11-27T05:51:34.921Z,10.03
2022-11-27T05:54:01.821Z,10.07
2022-11-27T05:56:28.763Z,10.07
2022-11-27T05:58:55.784Z,9.90
2022-11-27T06:01:22.664Z,12.33
2022-11-27T06:03:49.632Z,7.10
2022-11-27T06:06:19.023Z,11.70
2022-11-27T06:08:47.415Z,10.00
2022-11-27T06:11:22.216Z,7.13
2022-11-27T06:13:49.829Z,10.90
2022-11-27T06:16:22.384Z,5.57
2022-11-27T06:18:54.094Z,12.03
2022-11-27T06:21:23.152Z,11.27
2022-11-27T06:23:52.868Z,7.93
2022-11-27T06:26:23.362Z,8.03
2022-11-27T06:28:50.660Z,7.90
2022-11-27T06:31:23.038Z,8.43
2022-11-27T06:33:51.456Z,9.27
2022-11-27T06:36:18.977Z,8.70
2022-11-27T06:38:46.696Z,20.37
2022-11-27T06:41:16.155Z,18.83
2022-11-27T06:43:43.047Z,15.93
2022-11-27T06:46:15.309Z,11.03
2022-11-27T06:48:43.379Z,12.43
2022-11-27T06:51:12.303Z,9.53
2022-11-27T06:53:40.193Z,9.20
2022-11-27T06:56:09.117Z,10.20
2022-11-27T06:58:36.790Z,10.50
2022-11-27T07:01:07.322Z,8.63
2022-11-27T07:03:34.613Z,6.83
2022-11-27T07:06:03.311Z,9.43
2022-11-27T07:08:30.810Z,7.67
2022-11-27T07:11:28.746Z,13.77
2022-11-27T07:13:58.904Z,10.70
2022-11-27T07:16:27.460Z,9.20
2022-11-27T07:18:57.876Z,9.70
2022-11-27T07:21:24.989Z,8.93
2022-11-27T07:23:52.182Z,8.27
2022-11-27T07:26:22.647Z,8.43
2022-11-27T07:28:50.209Z,13.03
2022-11-27T07:31:22.792Z,11.13
2022-11-27T07:33:52.565Z,12.30
2022-11-27T07:36:22.523Z,10.77
2022-11-27T07:38:49.488Z,13.90
2022-11-27T07:41:16.885Z,10.90
2022-11-27T07:43:44.616Z,10.00
2022-11-27T07:46:17.815Z,13.53
2022-11-27T07:48:45.130Z,11.83
2022-11-27T07:51:14.819Z,10.27
2022-11-27T07:53:42.487Z,10.10
2022-11-27T07:56:11.807Z,11.93
2022-11-27T07:58:38.778Z,9.17
2022-11-27T08:01:10.680Z,11.20
2022-11-27T08:03:38.469Z,9.97
2022-11-27T08:06:13.556Z,9.87
2022-11-27T08:08:40.701Z,10.50
2022-11-27T08:11:15.533Z,9.13
2022-11-27T08:13:42.440Z,11.83
2022-11-27T08:16:09.562Z,11.20
2022-11-27T08:18:36.628Z,9.57
2022-11-27T08:21:03.555Z,10.43
2022-11-27T08:23:30.437Z,11.47
2022-11-27T08:25:57.393Z,8.87
2022-11-27T08:28:24.314Z,11.33
2022-11-27T08:30:58.507Z,11.07
2022-11-27T08:33:25.600Z,8.73
2022-11-27T08:35:52.660Z,8.57
2022-11-27T08:38:20.157Z,10.90
2022-11-27T08:40:55.375Z,7.33
2022-11-27T08:43:22.534Z,8.90
2022-11-27T08:45:49.803Z,7.67
2022-11-27T08:48:17.649Z,7.13
2022-11-27T08:50:44.857Z,8.73
2022-11-27T08:53:11.969Z,12.70
2022-11-27T08:55:39.170Z,8.50
2022-11-27T08:58:06.411Z,7.10
2022-11-27T09:00:34.189Z,10.00
2022-11-27T09:03:01.887Z,11.30
2022-11-27T09:05:29.933Z,8.67
2022-11-27T09:07:57.001Z,6.80
2022-11-27T09:10:24.250Z,7.43
2022-11-27T09:12:51.455Z,7.87
2022-11-27T09:15:18.536Z,9.90
2022-11-27T09:17:45.545Z,7.03
2022-11-27T09:20:14.391Z,9.13
2022-11-27T09:22:41.292Z,6.23
2022-11-27T09:25:09.645Z,6.45
2022-11-27T09:27:37.855Z,7.53
2022-11-27T09:30:07.408Z,6.50
2022-11-27T09:32:34.731Z,7.68
2022-11-27T09:35:01.723Z,5.75
2022-11-27T09:37:28.821Z,5.30
2022-11-27T09:39:55.782Z,6.10
2022-11-27T09:42:37.496Z,5.70
2022-11-27T09:45:08.404Z,10.33
2022-11-27T09:47:43.063Z,9.27
2022-11-27T09:50:29.995Z,14.27
2022-11-27T09:53:21.376Z,9.63
2022-11-27T09:55:51.509Z,7.30
2022-11-27T09:58:40.762Z,11.43
2022-11-27T10:01:18.344Z,8.80
2022-11-27T10:03:46.261Z,21.13
2022-11-27T10:06:26.267Z,6.23
2022-11-27T10:09:02.333Z,4.73
2022-11-27T10:11:44.239Z,7.73
2022-11-27T10:14:29.519Z,5.63
2022-11-27T10:17:20.553Z,17.40
2022-11-27T10:20:04.156Z,11.40
2022-11-27T10:22:50.624Z,10.93
2022-11-27T10:25:28.492Z,9.83
2022-11-27T10:28:26.931Z,6.87
2022-11-27T10:31:03.625Z,6.23
2022-11-27T10:33:43.672Z,8.07
2022-11-27T10:36:41.582Z,14.37
2022-11-27T10:39:19.445Z,7.33
2022-11-27T10:41:54.087Z,12.10
2022-11-27T10:44:29.911Z,11.10
2022-11-27T10:47:03.323Z,13.03
2022-11-27T10:49:31.282Z,8.73
2022-11-27T10:51:59.481Z,6.60
2022-11-27T10:54:37.323Z,8.97
2022-11-27T10:57:25.356Z,14.77
2022-11-27T11:00:11.321Z,7.70
2022-11-27T11:02:39.655Z,5.33
2022-11-27T11:05:50.609Z,6.80
2022-11-27T11:08:19.296Z,5.60
2022-11-27T11:10:49.541Z,5.57
2022-11-27T11:13:23.084Z,4.23
2022-11-27T11:15:57.512Z,5.23
2022-11-27T11:18:27.663Z,6.50
2022-11-27T11:20:57.675Z,4.43
2022-11-27T11:23:30.953Z,7.80
2022-11-27T11:26:07.345Z,4.90
2022-11-27T11:28:41.030Z,4.23
2022-11-27T11:31:17.761Z,3.20
2022-11-27T11:33:51.894Z,3.70
2022-11-27T11:36:19.196Z,4.17
2022-11-27T11:38:47.765Z,5.77
2022-11-27T11:41:17.999Z,4.80
2022-11-27T11:44:02.250Z,5.80
2022-11-27T11:46:33.675Z,5.60
2022-11-27T11:49:02.322Z,7.40
2022-11-27T11:51:44.369Z,4.23
2022-11-27T11:54:43.484Z,4.70
2022-11-27T11:57:30.915Z,5.77
2022-11-27T12:00:03.975Z,4.07
2022-11-27T12:02:53.509Z,6.37
2022-11-27T12:05:32.095Z,7.57
2022-11-27T12:08:05.314Z,6.17
2022-11-27T12:11:04.687Z,4.60
2022-11-27T12:13:42.239Z,6.33
2022-11-27T12:16:39.850Z,4.67
2022-11-27T12:19:20.034Z,4.63
2022-11-27T12:22:14.852Z,2.60
2022-11-27T12:24:44.791Z,5.87
2022-11-27T12:28:08.277Z,4.67
2022-11-27T12:30:52.071Z,4.43
2022-11-27T12:33:45.306Z,4.77
2022-11-27T12:36:31.103Z,5.17
2022-11-27T12:39:00.963Z,4.27
2022-11-27T12:41:54.460Z,6.07
2022-11-27T12:44:37.945Z,3.20
2022-11-27T12:47:17.403Z,4.17
2022-11-27T12:49:48.310Z,5.23
2022-11-27T12:52:25.694Z,4.60
2022-11-27T12:55:05.537Z,3.43
2022-11-27T12:57:52.699Z,2.90
2022-11-27T13:00:25.134Z,7.23
2022-11-27T13:03:17.738Z,4.10
2022-11-27T13:05:51.125Z,4.83
2022-11-27T13:08:24.277Z,3.13
2022-11-27T13:10:55.008Z,4.63
2022-11-27T13:13:37.618Z,3.83
2022-11-27T13:16:06.801Z,3.90
2022-11-27T13:18:54.992Z,4.50
2022-11-27T13:21:25.341Z,3.83
2022-11-27T13:23:52.781Z,5.60
2022-11-27T13:26:29.921Z,3.43
2022-11-27T13:29:19.748Z,8.90
2022-11-27T13:31:53.621Z,11.83
2022-11-27T13:34:23.758Z,17.17
2022-11-27T13:37:05.922Z,16.90
2022-11-27T13:39:37.928Z,21.23
2022-11-27T13:42:13.028Z,5.93
2022-11-27T13:44:52.344Z,12.40
2022-11-27T13:47:21.404Z,33.13
2022-11-27T13:50:00.336Z,10.67
2022-11-27T13:52:27.476Z,8.97
2022-11-27T13:54:57.610Z,3.13
2022-11-27T13:57:26.422Z,7.77
2022-11-27T14:00:16.251Z,6.50
2022-11-27T14:02:50.330Z,6.93
2022-11-27T14:05:19.949Z,5.07
2022-11-27T14:07:52.414Z,6.43
2022-11-27T14:10:29.583Z,5.97
2022-11-27T14:13:01.957Z,4.83
2022-11-27T14:15:30.734Z,4.23
2022-11-27T14:18:06.453Z,6.70
2022-11-27T14:20:37.830Z,4.77
2022-11-27T14:23:12.153Z,4.67
2022-11-27T14:25:40.000Z,5.17
2022-11-27T14:28:12.901Z,4.97
2022-11-27T14:30:41.114Z,4.83
2022-11-27T14:33:19.626Z,13.20
2022-11-27T14:35:52.133Z,12.60
2022-11-27T14:38:19.207Z,10.83
2022-11-27T14:40:46.472Z,31.97
2022-11-27T14:43:24.003Z,8.20
2022-11-27T14:45:53.948Z,30.43
2022-11-27T14:48:26.232Z,66.67
2022-11-27T14:50:55.898Z,71.93
2022-11-27T14:53:25.129Z,11.77
2022-11-27T14:55:56.232Z,10.17
2022-11-27T14:58:29.940Z,4.57
2022-11-27T15:01:06.444Z,9.83
2022-11-27T15:03:33.844Z,4.97
2022-11-27T15:06:07.232Z,7.23
2022-11-27T15:08:36.371Z,6.23
2022-11-27T15:11:05.586Z,14.23
2022-11-27T15:13:37.495Z,10.50
2022-11-27T15:16:17.861Z,19.23
2022-11-27T15:18:52.038Z,5.57
2022-11-27T15:21:21.697Z,12.37
2022-11-27T15:23:52.275Z,23.10
2022-11-27T15:26:36.383Z,20.60
2022-11-27T15:29:03.741Z,11.77
2022-11-27T15:31:38.284Z,7.53
2022-11-27T15:34:14.503Z,12.50
2022-11-27T15:36:49.522Z,16.60
2022-11-27T15:39:19.594Z,13.97
2022-11-27T15:41:58.271Z,18.07
2022-11-27T15:44:27.028Z,12.97
2022-11-27T15:46:56.270Z,12.60
2022-11-27T15:49:23.752Z,17.63
2022-11-27T15:51:50.865Z,9.73
2022-11-27T15:54:18.215Z,23.17
2022-11-27T15:56:46.801Z,9.73
2022-11-27T15:59:14.438Z,12.30
2022-11-27T16:01:41.374Z,34.10
2022-11-27T16:04:08.355Z,17.37
2022-11-27T16:06:38.893Z,10.27
2022-11-27T16:09:05.991Z,17.33
2022-11-27T16:11:33.235Z,21.33
2022-11-27T16:14:00.301Z,37.00
2022-11-27T16:16:27.864Z,11.50
2022-11-27T16:19:02.611Z,8.60
2022-11-27T16:21:30.433Z,3.90
2022-11-27T16:24:00.125Z,4.50
2022-11-27T16:26:28.642Z,5.00
2022-11-27T16:28:56.066Z,5.90
2022-11-27T16:31:24.086Z,2.97
2022-11-27T16:33:51.239Z,3.57
2022-11-27T16:36:21.099Z,4.37
2022-11-27T16:38:48.907Z,4.60
2022-11-27T16:41:19.056Z,9.43
2022-11-27T16:43:48.891Z,8.53
2022-11-27T16:46:17.704Z,9.27
2022-11-27T16:48:46.555Z,12.97
2022-11-27T16:51:22.669Z,11.00
2022-11-27T16:53:52.216Z,11.30
2022-11-27T16:56:23.539Z,4.63
2022-11-27T16:58:56.707Z,2.20
2022-11-27T17:01:34.297Z,4.17
2022-11-27T17:04:03.605Z,7.60
2022-11-27T17:06:32.570Z,4.23
2022-11-27T17:09:00.801Z,3.87
2022-11-27T17:11:30.797Z,4.63
2022-11-27T17:14:00.204Z,7.60
2022-11-27T17:16:27.510Z,8.20
2022-11-27T17:18:54.610Z,7.90
2022-11-27T17:21:33.771Z,5.03
2022-11-27T17:24:11.597Z,7.53
2022-11-27T17:26:44.893Z,5.37
2022-11-27T17:29:13.875Z,6.20
2022-11-27T17:31:41.183Z,4.33
2022-11-27T17:34:10.939Z,6.97
2022-11-27T17:36:38.756Z,3.93
2022-11-27T17:39:06.478Z,3.33
2022-11-27T17:41:34.128Z,4.00
2022-11-27T17:44:05.919Z,5.63
2022-11-27T17:46:34.514Z,4.83
2022-11-27T17:49:04.703Z,6.40
2022-11-27T17:51:33.068Z,3.83
2022-11-27T17:54:01.889Z,2.93
2022-11-27T17:56:33.162Z,4.87
2022-11-27T17:59:00.190Z,6.20
2022-11-27T18:01:29.287Z,3.30
2022-11-27T18:03:59.850Z,6.70
2022-11-27T18:06:30.082Z,6.10
2022-11-27T18:08:58.210Z,4.30
2022-11-27T18:11:28.771Z,5.83
2022-11-27T18:13:58.787Z,4.10
2022-11-27T18:16:30.033Z,5.87
2022-11-27T18:19:02.312Z,7.87
2022-11-27T18:21:31.068Z,5.03
2022-11-27T18:29:34.675Z,4.27
2022-11-27T18:32:01.643Z,4.27
2022-11-27T18:34:28.815Z,5.43
2022-11-27T18:36:57.393Z,4.53
2022-11-27T18:39:24.349Z,5.53
2022-11-27T18:41:51.775Z,4.73
2022-11-27T18:44:18.987Z,5.33
2022-11-27T18:46:45.874Z,5.37
2022-11-27T18:49:12.953Z,3.30
2022-11-27T18:51:40.699Z,3.30
2022-11-27T18:54:08.294Z,4.10
2022-11-27T18:56:37.157Z,4.23
2022-11-27T18:59:06.493Z,7.90
2022-11-27T19:01:41.394Z,7.47
2022-11-27T19:04:09.356Z,8.07
2022-11-27T19:06:37.125Z,5.47
2022-11-27T19:09:05.118Z,6.47
2022-11-27T19:11:33.892Z,6.30
2022-11-27T19:14:01.789Z,8.23
2022-11-27T19:16:32.944Z,8.53
2022-11-27T19:19:02.353Z,8.77
2022-11-27T19:21:31.320Z,6.17
2022-11-27T19:24:00.022Z,8.63
2022-11-27T19:26:31.816Z,5.50
2022-11-27T19:29:02.637Z,6.07
2022-11-27T19:31:37.640Z,6.03
2022-11-27T19:34:06.210Z,5.93
2022-11-27T19:36:35.223Z,6.23
2022-11-27T19:39:06.121Z,5.83
2022-11-27T19:41:33.158Z,7.83
2022-11-27T19:44:02.005Z,5.90
2022-11-27T19:46:30.651Z,6.40
2022-11-27T19:49:03.679Z,6.40
2022-11-27T19:51:34.687Z,7.60
2022-11-27T19:54:05.696Z,5.47
2022-11-27T19:56:37.427Z,9.50
2022-11-27T19:59:04.544Z,6.63
2022-11-27T20:01:31.673Z,6.87
2022-11-27T20:03:58.979Z,8.73
2022-11-27T20:06:28.294Z,10.97
2022-11-27T20:09:01.117Z,10.83
2022-11-27T20:11:34.076Z,11.93
2022-11-27T20:14:04.318Z,17.90
2022-11-27T20:16:33.229Z,19.53
2022-11-27T20:19:02.768Z,17.00
2022-11-27T20:21:29.658Z,13.70
2022-11-27T20:23:57.991Z,8.47
2022-11-27T20:26:27.555Z,7.77
2022-11-27T20:28:55.016Z,9.80
2022-11-27T20:31:24.993Z,11.47
2022-11-27T20:33:55.272Z,8.43
2022-11-27T20:36:24.112Z,5.83
2022-11-27T20:38:52.135Z,7.90
2022-11-27T20:41:20.738Z,8.27
2022-11-27T20:43:53.311Z,5.60
2022-11-27T20:46:20.308Z,7.53
2022-11-27T20:48:49.100Z,7.67
2022-11-27T20:51:20.164Z,7.67
2022-11-27T20:53:49.010Z,7.53
2022-11-27T20:56:18.512Z,7.47
2022-11-27T20:58:47.062Z,4.80
2022-11-27T21:01:20.527Z,6.77
2022-11-27T21:03:49.529Z,9.30
2022-11-27T21:06:19.238Z,9.37
2022-11-27T21:08:46.798Z,5.10
2022-11-27T21:11:25.413Z,5.30
2022-11-27T21:13:57.269Z,6.00
2022-11-27T21:16:27.160Z,6.73
2022-11-27T21:18:59.043Z,5.63
2022-11-27T21:21:26.420Z,6.73
2022-11-27T21:23:54.259Z,6.93
2022-11-27T21:26:21.881Z,6.00
2022-11-27T21:28:50.147Z,7.43
2022-11-27T21:31:23.538Z,6.60
2022-11-27T21:33:56.509Z,8.67
2022-11-27T21:36:26.362Z,8.87
2022-11-27T21:38:53.705Z,15.10
2022-11-27T21:41:21.247Z,16.43
2022-11-27T21:43:49.361Z,6.13
2022-11-27T21:46:19.042Z,9.57
2022-11-27T21:48:50.653Z,11.07
2022-11-27T21:51:18.979Z,7.43
2022-11-27T21:53:48.587Z,6.10
2022-11-27T21:56:17.963Z,7.13
2022-11-27T21:58:44.949Z,5.73
2022-11-27T22:01:16.924Z,4.77
2022-11-27T22:03:45.293Z,6.70
2022-11-27T22:06:14.711Z,5.30
2022-11-27T22:08:43.636Z,7.00
2022-11-27T22:11:15.372Z,6.77
2022-11-27T22:13:42.754Z,6.60
2022-11-27T22:16:18.491Z,5.37
2022-11-27T22:18:46.354Z,6.90
2022-11-27T22:21:14.198Z,6.43
2022-11-27T22:23:41.995Z,5.80
2022-11-27T22:26:12.072Z,7.47
2022-11-27T22:28:39.494Z,5.97
2022-11-27T22:31:24.784Z,5.10
2022-11-27T22:33:52.168Z,4.23
2022-11-27T22:36:26.333Z,6.23
2022-11-27T22:38:55.023Z,5.67
2022-11-27T22:41:24.564Z,5.97
2022-11-27T22:43:52.135Z,6.97
2022-11-27T22:46:26.344Z,5.67
2022-11-27T22:49:00.953Z,7.47
2022-11-27T22:51:29.712Z,4.93
2022-11-27T22:53:57.353Z,9.73
2022-11-27T22:56:24.703Z,5.00
2022-11-27T22:59:06.096Z,5.07
2022-11-27T23:01:40.969Z,6.23
2022-11-27T23:04:08.126Z,7.40
2022-11-27T23:06:35.022Z,5.13
2022-11-27T23:09:02.991Z,5.63
2022-11-27T23:11:30.310Z,6.23
2022-11-27T23:13:58.300Z,4.77
2022-11-27T23:16:25.703Z,7.17
2022-11-27T23:18:52.928Z,5.37
2022-11-27T23:21:22.717Z,4.93
2022-11-27T23:23:50.415Z,5.87
2022-11-27T23:26:21.961Z,5.33
2022-11-27T23:28:50.588Z,8.33
2022-11-27T23:31:30.100Z,6.10
2022-11-27T23:33:58.803Z,4.97
2022-11-27T23:36:25.810Z,6.30
2022-11-27T23:38:52.826Z,5.67
2022-11-27T23:41:22.349Z,6.83
2022-11-27T23:43:50.579Z,5.60
2022-11-27T23:46:19.509Z,5.83
2022-11-27T23:48:46.640Z,4.83
2022-11-27T23:51:17.143Z,7.90
2022-11-27T23:53:44.473Z,6.63
2022-11-27T23:56:14.510Z,7.30
2022-11-27T23:58:46.688Z,5.57
